sim
Sign-in with your pilot id or email,
or register
Callsign
Passwort

Schedule Details

Flight Number: DLH2057
Departure: Berlin Tegel Airport (EDDT) at 17:30
Arrival: Munich Airport (EDDM) at 18:40
Route: Lufthansa Passenger Schedule. Enter filed route here before submitting Pirep.

Weather Information
Getting current METAR information for EDDT 250920Z VRB02KT 9999 BKN006 14/13 Q0996 TEMPO SCT005
Getting current METAR information for EDDM 250920Z 28009KT 250V320 9999 -RA FEW015 BKN048 10/07 Q1002 NOSIG

Schedule Frequency

Route Map